createdAt,value
2023-05-20T08:25:11.725Z,23.30
2023-05-20T08:27:40.090Z,26.40
2023-05-20T08:30:09.452Z,20.90
2023-05-20T08:32:37.009Z,21.30
2023-05-20T08:35:04.896Z,22.70
2023-05-20T08:37:32.075Z,24.20
2023-05-20T08:39:59.429Z,19.00
2023-05-20T08:42:26.403Z,20.10
2023-05-20T08:44:56.157Z,19.40
2023-05-20T08:47:23.743Z,22.20
2023-05-20T08:49:50.755Z,19.90
2023-05-20T08:52:31.377Z,21.80
2023-05-20T08:55:37.836Z,20.10
2023-05-20T08:58:10.041Z,22.20
2023-05-20T09:00:37.844Z,22.00
2023-05-20T09:03:05.063Z,21.80
2023-05-20T09:05:33.436Z,21.40
2023-05-20T09:08:08.471Z,25.70
2023-05-20T09:10:37.775Z,25.00
2023-05-20T09:13:06.206Z,18.40
2023-05-20T09:15:35.219Z,21.50
2023-05-20T09:18:04.374Z,21.10
2023-05-20T09:20:36.827Z,19.80
2023-05-20T09:23:09.178Z,22.30
2023-05-20T09:25:37.501Z,21.70
2023-05-20T09:28:07.063Z,23.00
2023-05-20T09:30:34.464Z,23.50
2023-05-20T09:33:04.717Z,27.30
2023-05-20T09:35:37.066Z,21.70
2023-05-20T09:38:06.519Z,19.90
2023-05-20T09:40:37.689Z,20.80
2023-05-20T09:43:08.307Z,21.90
2023-05-20T09:45:36.411Z,17.80
2023-05-20T09:48:05.408Z,22.40
2023-05-20T09:50:32.489Z,18.80
2023-05-20T09:53:03.560Z,21.10
2023-05-20T09:55:31.393Z,22.60
2023-05-20T09:58:02.228Z,16.00
2023-05-20T10:00:29.759Z,18.30
2023-05-20T10:02:58.386Z,20.80
2023-05-20T10:05:33.136Z,16.90
2023-05-20T10:08:19.526Z,20.80
2023-05-20T10:13:35.086Z,17.40
2023-05-20T10:16:14.497Z,19.00
2023-05-20T10:19:08.549Z,19.70
2023-05-20T10:21:35.858Z,25.70
2023-05-20T10:24:07.821Z,17.10
2023-05-20T10:26:36.824Z,18.00
2023-05-20T10:29:17.703Z,21.30
2023-05-20T10:31:48.014Z,23.60
2023-05-20T10:34:18.894Z,17.30
2023-05-20T10:36:55.383Z,25.50
2023-05-20T10:39:34.655Z,20.50
2023-05-20T10:42:10.014Z,20.70
2023-05-20T10:44:55.422Z,20.20
2023-05-20T10:47:25.767Z,19.90
2023-05-20T10:49:53.700Z,17.60
2023-05-20T10:52:21.306Z,18.40
2023-05-20T10:54:59.856Z,25.60
2023-05-20T10:57:29.454Z,19.70
2023-05-20T11:00:01.592Z,16.40
2023-05-20T11:02:30.105Z,18.10
2023-05-20T11:05:05.602Z,14.50
2023-05-20T11:07:36.499Z,13.80
2023-05-20T11:10:09.110Z,19.10
2023-05-20T11:12:39.685Z,15.80
2023-05-20T11:15:14.296Z,15.40
2023-05-20T11:17:55.127Z,13.50
2023-05-20T11:20:24.887Z,13.90
2023-05-20T11:22:56.131Z,14.30
2023-05-20T11:25:23.579Z,23.50
2023-05-20T11:27:51.407Z,15.50
2023-05-20T11:30:20.004Z,14.80
2023-05-20T11:32:58.881Z,18.40
2023-05-20T11:35:29.679Z,19.80
2023-05-20T11:38:05.830Z,17.20
2023-05-20T11:40:46.388Z,15.50
2023-05-20T11:43:18.806Z,16.50
2023-05-20T11:45:51.968Z,13.90
2023-05-20T11:48:23.288Z,15.60
2023-05-20T11:50:52.818Z,13.90
2023-05-20T11:53:22.120Z,14.20
2023-05-20T11:55:49.295Z,12.30
2023-05-20T11:58:23.212Z,11.60
2023-05-20T12:00:56.743Z,14.40
2023-05-20T12:03:29.604Z,14.90
2023-05-20T12:05:56.900Z,11.40
2023-05-20T12:08:24.207Z,12.50
2023-05-20T12:10:51.207Z,12.90
2023-05-20T12:13:19.212Z,13.30
2023-05-20T12:15:51.803Z,18.70
2023-05-20T12:18:20.079Z,15.70
2023-05-20T12:20:47.422Z,14.10
2023-05-20T12:23:14.538Z,13.60
2023-05-20T12:25:41.566Z,14.10
2023-05-20T12:28:09.219Z,16.20
2023-05-20T12:30:36.806Z,13.40
2023-05-20T12:33:04.242Z,15.30
2023-05-20T12:35:43.026Z,17.50
2023-05-20T12:38:10.711Z,23.80
2023-05-20T12:40:38.415Z,14.60
2023-05-20T12:43:06.082Z,16.20
2023-05-20T12:45:33.269Z,14.10
2023-05-20T12:48:00.876Z,14.60
2023-05-20T12:50:28.519Z,11.50
2023-05-20T12:52:56.640Z,15.10
2023-05-20T12:55:24.226Z,14.20
2023-05-20T12:57:51.487Z,12.10
2023-05-20T13:00:19.315Z,11.60
2023-05-20T13:02:46.593Z,9.00
2023-05-20T13:05:14.557Z,9.30
2023-05-20T13:07:41.834Z,13.80
2023-05-20T13:10:10.444Z,13.60
2023-05-20T13:12:37.867Z,14.80
2023-05-20T13:15:06.017Z,11.70
2023-05-20T13:17:33.183Z,15.70
2023-05-20T13:20:00.223Z,15.10
2023-05-20T13:22:27.841Z,12.20
2023-05-20T13:24:55.060Z,14.40
2023-05-20T13:27:21.983Z,17.90
2023-05-20T13:29:48.893Z,12.80
2023-05-20T13:32:15.982Z,14.90
2023-05-20T13:34:42.980Z,13.20
2023-05-20T13:37:10.310Z,13.30
2023-05-20T13:39:37.365Z,16.30
2023-05-20T13:42:04.840Z,21.80
2023-05-20T13:44:33.553Z,16.50
2023-05-20T13:47:03.198Z,17.20
2023-05-20T13:49:30.598Z,9.80
2023-05-20T13:51:57.665Z,10.80
2023-05-20T13:54:24.814Z,9.70
2023-05-20T13:56:52.787Z,11.50
2023-05-20T13:59:19.892Z,16.10
2023-05-20T14:01:46.887Z,11.90
2023-05-20T14:04:13.773Z,13.50
2023-05-20T14:06:41.011Z,16.00
2023-05-20T14:09:11.268Z,13.40
2023-05-20T14:11:38.318Z,14.10
2023-05-20T14:14:06.110Z,14.90
2023-05-20T14:16:33.469Z,15.90
2023-05-20T14:19:01.055Z,15.70
2023-05-20T14:21:28.168Z,12.20
2023-05-20T14:23:55.397Z,14.00
2023-05-20T14:26:22.566Z,15.30
2023-05-20T14:28:49.597Z,10.60
2023-05-20T14:31:16.655Z,13.80
2023-05-20T14:33:44.327Z,18.00
2023-05-20T14:36:11.666Z,11.70
2023-05-20T14:38:38.739Z,17.70
2023-05-20T14:41:05.927Z,14.40
2023-05-20T14:43:36.347Z,13.50
2023-05-20T14:46:04.187Z,13.40
2023-05-20T14:48:31.440Z,12.00
2023-05-20T14:50:58.547Z,11.70
2023-05-20T14:53:25.515Z,9.80
2023-05-20T14:55:52.800Z,12.10
2023-05-20T14:58:20.459Z,14.50
2023-05-20T15:00:47.518Z,14.10
2023-05-20T15:03:14.572Z,12.40
2023-05-20T15:05:42.187Z,14.60
2023-05-20T15:08:09.167Z,13.30
2023-05-20T15:10:36.673Z,15.40
2023-05-20T15:13:04.150Z,12.20
2023-05-20T15:15:31.312Z,12.50
2023-05-20T15:17:58.315Z,9.90
2023-05-20T15:20:25.597Z,12.10
2023-05-20T15:22:53.769Z,10.80
2023-05-20T15:25:20.818Z,10.70
2023-05-20T15:27:47.936Z,12.70
2023-05-20T15:30:15.177Z,15.90
2023-05-20T15:32:42.363Z,11.20
2023-05-20T15:35:09.782Z,14.00
2023-05-20T15:37:36.924Z,14.60
2023-05-20T15:40:04.351Z,11.90
2023-05-20T15:42:31.341Z,9.90
2023-05-20T15:44:58.284Z,14.40
2023-05-20T15:47:25.613Z,13.60
2023-05-20T15:49:54.000Z,12.60
2023-05-20T15:52:21.161Z,12.90
2023-05-20T15:54:48.101Z,11.90
2023-05-20T15:57:15.429Z,14.30
2023-05-20T15:59:42.535Z,11.40
2023-05-20T16:02:12.402Z,13.80
2023-05-20T16:04:39.579Z,11.80
2023-05-20T16:07:06.907Z,10.50
2023-05-20T16:09:34.101Z,17.60
2023-05-20T16:12:01.733Z,13.50
2023-05-20T16:14:28.909Z,21.20
2023-05-20T16:16:55.915Z,18.90
2023-05-20T16:19:23.445Z,12.00
2023-05-20T16:21:50.679Z,15.80
2023-05-20T16:24:17.746Z,11.80
2023-05-20T16:26:44.935Z,13.30
2023-05-20T16:29:13.037Z,14.30
2023-05-20T16:31:41.464Z,13.70
2023-05-20T16:34:08.548Z,14.00
2023-05-20T16:36:36.154Z,16.10
2023-05-20T16:39:04.018Z,15.30
2023-05-20T16:41:31.294Z,12.40
2023-05-20T16:43:58.529Z,12.10
2023-05-20T16:46:25.806Z,13.20
2023-05-20T16:48:52.898Z,13.90
2023-05-20T16:51:20.321Z,14.10
2023-05-20T16:53:47.487Z,12.20
2023-05-20T16:56:14.627Z,12.90
2023-05-20T16:58:41.636Z,16.60
2023-05-20T17:01:08.846Z,13.60
2023-05-20T17:03:35.908Z,15.70
2023-05-20T17:06:03.145Z,11.40
2023-05-20T17:08:30.646Z,10.20
2023-05-20T17:10:59.266Z,12.70
2023-05-20T17:13:26.227Z,12.80
2023-05-20T17:15:53.379Z,13.90
2023-05-20T17:18:20.789Z,13.70
2023-05-20T17:20:47.803Z,18.70
2023-05-20T17:23:14.973Z,11.10
2023-05-20T17:25:42.154Z,13.60
2023-05-20T17:28:11.521Z,13.80
2023-05-20T17:30:38.659Z,15.40
2023-05-20T17:33:06.023Z,14.70
2023-05-20T17:35:33.304Z,15.70
2023-05-20T17:38:00.364Z,11.60
2023-05-20T17:40:27.393Z,15.60
2023-05-20T17:42:54.422Z,14.90
2023-05-20T17:45:21.532Z,13.30
2023-05-20T17:47:48.762Z,13.50
2023-05-20T17:50:16.535Z,11.80
2023-05-20T17:52:43.573Z,8.20
2023-05-20T17:55:12.360Z,10.60
2023-05-20T17:57:39.541Z,10.50
2023-05-20T18:00:08.764Z,15.20
2023-05-20T18:02:37.868Z,9.90
2023-05-20T18:05:06.327Z,10.50
2023-05-20T18:07:33.432Z,12.00
2023-05-20T18:10:00.673Z,9.80
2023-05-20T18:12:27.763Z,10.60
2023-05-20T18:14:55.055Z,10.10
2023-05-20T18:17:22.338Z,9.40
2023-05-20T18:19:49.337Z,8.80
2023-05-20T18:22:18.993Z,12.80
2023-05-20T18:24:46.042Z,10.70
2023-05-20T18:27:13.252Z,11.00
2023-05-20T18:29:40.565Z,9.20
2023-05-20T18:32:08.200Z,15.20
2023-05-20T18:34:35.626Z,11.30
2023-05-20T18:37:03.396Z,8.90
2023-05-20T18:39:30.955Z,12.00
2023-05-20T18:41:59.376Z,8.10
2023-05-20T18:44:26.816Z,10.50
2023-05-20T18:46:53.992Z,10.60
2023-05-20T18:49:21.107Z,12.70
2023-05-20T18:51:48.069Z,9.90
2023-05-20T18:54:15.308Z,9.50
2023-05-20T18:56:42.646Z,12.00
2023-05-20T18:59:09.978Z,14.20
2023-05-20T19:01:37.079Z,10.40
2023-05-20T19:04:04.306Z,10.70
2023-05-20T19:06:34.603Z,10.10
2023-05-20T19:09:01.770Z,15.80
2023-05-20T19:11:29.582Z,10.80
2023-05-20T19:13:59.460Z,10.90
2023-05-20T19:16:26.757Z,10.30
2023-05-20T19:18:53.911Z,9.90
2023-05-20T19:21:21.210Z,9.80
2023-05-20T19:23:48.455Z,11.10
2023-05-20T19:26:15.971Z,13.10
2023-05-20T19:28:42.951Z,10.90
2023-05-20T19:31:10.195Z,12.70
2023-05-20T19:33:37.395Z,10.40
2023-05-20T19:36:05.517Z,12.30
2023-05-20T19:38:32.615Z,10.30
2023-05-20T19:40:59.561Z,15.50
2023-05-20T19:43:26.617Z,13.30
2023-05-20T19:45:53.946Z,13.90
2023-05-20T19:48:22.319Z,13.30
2023-05-20T19:50:50.358Z,11.80
2023-05-20T19:53:17.415Z,12.80
2023-05-20T19:55:44.998Z,13.10
2023-05-20T19:58:12.005Z,8.10
2023-05-20T20:00:39.072Z,11.90
2023-05-20T20:03:07.273Z,11.70
2023-05-20T20:05:34.581Z,17.70
2023-05-20T20:08:01.982Z,15.60
2023-05-20T20:10:31.776Z,14.20
2023-05-20T20:12:58.809Z,15.20
2023-05-20T20:15:26.709Z,16.90
2023-05-20T20:17:54.118Z,15.20
2023-05-20T20:20:22.886Z,13.30
2023-05-20T20:22:50.053Z,12.60
2023-05-20T20:25:17.405Z,11.20
2023-05-20T20:27:44.419Z,12.40
2023-05-20T20:30:13.285Z,12.40
2023-05-20T20:32:41.143Z,11.00
2023-05-20T20:35:08.977Z,9.50
2023-05-20T20:37:37.209Z,11.20
2023-05-20T20:40:07.273Z,16.30
2023-05-20T20:42:34.575Z,14.30
2023-05-20T20:45:01.837Z,13.60
2023-05-20T20:47:28.991Z,14.50
2023-05-20T20:49:56.242Z,12.20
2023-05-20T20:52:23.576Z,10.70
2023-05-20T20:54:50.610Z,12.80
2023-05-20T20:57:17.675Z,10.70
2023-05-20T20:59:47.399Z,10.80
2023-05-20T21:02:14.674Z,9.10
2023-05-20T21:04:42.348Z,13.70
2023-05-20T21:07:09.513Z,10.00
2023-05-20T21:09:36.554Z,10.10
2023-05-20T21:12:06.108Z,11.90
2023-05-20T21:14:33.126Z,10.30
2023-05-20T21:17:00.534Z,11.90
2023-05-20T21:19:29.360Z,12.60
2023-05-20T21:21:56.467Z,9.30
2023-05-20T21:24:23.542Z,13.00
2023-05-20T21:26:50.900Z,10.80
2023-05-20T21:29:18.011Z,10.50
2023-05-20T21:31:45.029Z,11.80
2023-05-20T21:34:12.127Z,12.10
2023-05-20T21:36:39.263Z,9.20
2023-05-20T21:39:06.664Z,8.90
2023-05-20T21:41:33.807Z,9.50
2023-05-20T21:44:00.833Z,17.20
2023-05-20T21:46:28.055Z,9.50
2023-05-20T21:48:55.327Z,10.30
2023-05-20T21:51:22.522Z,10.50
2023-05-20T21:53:49.582Z,11.40
2023-05-20T21:56:16.812Z,10.10
2023-05-20T21:58:44.069Z,12.40
2023-05-20T22:01:11.176Z,12.70
2023-05-20T22:03:39.369Z,10.10
2023-05-20T22:06:06.721Z,11.70
2023-05-20T22:08:33.798Z,10.90
2023-05-20T22:11:04.880Z,11.40
2023-05-20T22:13:32.624Z,11.60
2023-05-20T22:16:01.597Z,11.40
2023-05-20T22:18:32.795Z,13.00
2023-05-20T22:21:00.740Z,12.30
2023-05-20T22:23:28.368Z,10.20
2023-05-20T22:25:55.676Z,16.30
2023-05-20T22:28:23.487Z,10.30
2023-05-20T22:30:51.466Z,10.40
2023-05-20T22:33:18.495Z,10.20
2023-05-20T22:35:45.486Z,12.10
2023-05-20T22:38:12.730Z,12.60
2023-05-20T22:40:39.894Z,9.80
2023-05-20T22:43:07.137Z,13.90
2023-05-20T22:45:34.394Z,12.30
2023-05-20T22:48:03.296Z,12.50
2023-05-20T22:50:30.323Z,13.10
2023-05-20T22:52:57.261Z,11.70
2023-05-20T22:55:24.369Z,10.20
2023-05-20T22:57:51.853Z,10.30
2023-05-20T23:00:19.606Z,10.60
2023-05-20T23:02:49.154Z,12.90
2023-05-20T23:05:16.286Z,13.20
2023-05-20T23:07:44.312Z,13.00
2023-05-20T23:10:11.366Z,13.80
2023-05-20T23:12:38.375Z,12.80
2023-05-20T23:15:06.215Z,15.10
2023-05-20T23:17:33.295Z,15.70
2023-05-20T23:20:00.538Z,13.00
2023-05-20T23:22:27.856Z,13.60
2023-05-20T23:24:54.944Z,16.00
2023-05-20T23:27:22.190Z,12.20
2023-05-20T23:29:49.108Z,13.60
2023-05-20T23:32:16.074Z,14.10
2023-05-20T23:34:43.177Z,14.60
2023-05-20T23:37:10.357Z,15.40
2023-05-20T23:39:37.954Z,13.20
2023-05-20T23:42:05.415Z,18.70
2023-05-20T23:44:32.430Z,14.30
2023-05-20T23:47:00.404Z,13.30
2023-05-20T23:49:29.316Z,13.70
2023-05-20T23:51:56.485Z,15.80
2023-05-20T23:54:23.634Z,17.20
2023-05-20T23:56:50.912Z,22.50
2023-05-20T23:59:17.860Z,15.80
